sensor_id;sensor_type;location;lat;lon;timestamp;P1;durP1;ratioP1;P2;durP2;ratioP2
21810;SDS011;11067;48.788;9.208;2023-08-21T00:00:59;7.03;;;5.82;;
21810;SDS011;11067;48.788;9.208;2023-08-21T00:03:25;9.85;;;6.03;;
21810;SDS011;11067;48.788;9.208;2023-08-21T00:05:50;8.30;;;5.80;;
21810;SDS011;11067;48.788;9.208;2023-08-21T00:08:16;8.50;;;5.23;;
21810;SDS011;11067;48.788;9.208;2023-08-21T00:10:41;6.97;;;5.60;;
21810;SDS011;11067;48.788;9.208;2023-08-21T00:13:07;8.23;;;6.00;;
21810;SDS011;11067;48.788;9.208;2023-08-21T00:15:32;8.48;;;5.97;;
21810;SDS011;11067;48.788;9.208;2023-08-21T00:17:58;7.73;;;5.90;;
21810;SDS011;11067;48.788;9.208;2023-08-21T00:20:25;7.60;;;6.22;;
21810;SDS011;11067;48.788;9.208;2023-08-21T00:22:50;9.93;;;6.20;;
21810;SDS011;11067;48.788;9.208;2023-08-21T00:25:16;7.23;;;5.93;;
21810;SDS011;11067;48.788;9.208;2023-08-21T00:27:42;9.17;;;5.97;;
21810;SDS011;11067;48.788;9.208;2023-08-21T00:30:07;8.57;;;6.53;;
21810;SDS011;11067;48.788;9.208;2023-08-21T00:32:33;9.85;;;6.35;;
21810;SDS011;11067;48.788;9.208;2023-08-21T00:35:00;10.15;;;6.28;;
21810;SDS011;11067;48.788;9.208;2023-08-21T00:37:25;11.30;;;6.45;;
21810;SDS011;11067;48.788;9.208;2023-08-21T00:39:51;12.17;;;6.43;;
21810;SDS011;11067;48.788;9.208;2023-08-21T00:42:16;10.30;;;6.50;;
21810;SDS011;11067;48.788;9.208;2023-08-21T00:44:42;8.45;;;6.15;;
21810;SDS011;11067;48.788;9.208;2023-08-21T00:47:07;6.77;;;6.00;;
21810;SDS011;11067;48.788;9.208;2023-08-21T00:49:33;10.53;;;6.30;;
21810;SDS011;11067;48.788;9.208;2023-08-21T00:51:59;10.05;;;6.65;;
21810;SDS011;11067;48.788;9.208;2023-08-21T00:54:24;10.82;;;6.10;;
21810;SDS011;11067;48.788;9.208;2023-08-21T00:56:50;8.00;;;6.00;;
21810;SDS011;11067;48.788;9.208;2023-08-21T00:59:17;10.40;;;6.32;;
21810;SDS011;11067;48.788;9.208;2023-08-21T01:01:44;13.23;;;6.17;;
21810;SDS011;11067;48.788;9.208;2023-08-21T01:04:12;8.87;;;6.23;;
21810;SDS011;11067;48.788;9.208;2023-08-21T01:06:38;9.00;;;6.38;;
21810;SDS011;11067;48.788;9.208;2023-08-21T01:09:07;11.27;;;6.30;;
21810;SDS011;11067;48.788;9.208;2023-08-21T01:12:41;7.55;;;6.07;;
21810;SDS011;11067;48.788;9.208;2023-08-21T01:14:48;8.87;;;7.00;;
21810;SDS011;11067;48.788;9.208;2023-08-21T01:17:18;8.98;;;6.55;;
21810;SDS011;11067;48.788;9.208;2023-08-21T01:19:46;9.85;;;6.60;;
21810;SDS011;11067;48.788;9.208;2023-08-21T01:22:14;11.17;;;7.10;;
21810;SDS011;11067;48.788;9.208;2023-08-21T01:24:39;10.40;;;6.60;;
21810;SDS011;11067;48.788;9.208;2023-08-21T01:27:05;11.70;;;7.00;;
21810;SDS011;11067;48.788;9.208;2023-08-21T01:29:31;10.33;;;6.90;;
21810;SDS011;11067;48.788;9.208;2023-08-21T01:34:23;9.32;;;6.53;;
21810;SDS011;11067;48.788;9.208;2023-08-21T01:36:49;9.15;;;6.65;;
21810;SDS011;11067;48.788;9.208;2023-08-21T01:39:15;7.13;;;6.18;;
21810;SDS011;11067;48.788;9.208;2023-08-21T01:41:41;10.57;;;6.68;;
21810;SDS011;11067;48.788;9.208;2023-08-21T01:44:07;10.10;;;6.32;;
21810;SDS011;11067;48.788;9.208;2023-08-21T01:46:33;9.93;;;6.63;;
21810;SDS011;11067;48.788;9.208;2023-08-21T01:48:58;10.52;;;6.43;;
21810;SDS011;11067;48.788;9.208;2023-08-21T01:51:24;11.67;;;7.00;;
21810;SDS011;11067;48.788;9.208;2023-08-21T01:53:51;10.45;;;6.90;;
21810;SDS011;11067;48.788;9.208;2023-08-21T01:56:17;8.20;;;6.22;;
21810;SDS011;11067;48.788;9.208;2023-08-21T01:58:42;8.27;;;6.47;;
21810;SDS011;11067;48.788;9.208;2023-08-21T02:01:08;8.83;;;6.63;;
21810;SDS011;11067;48.788;9.208;2023-08-21T02:03:33;8.95;;;6.85;;
21810;SDS011;11067;48.788;9.208;2023-08-21T02:05:59;7.50;;;6.70;;
21810;SDS011;11067;48.788;9.208;2023-08-21T02:08:26;11.30;;;6.72;;
21810;SDS011;11067;48.788;9.208;2023-08-21T02:10:56;13.15;;;7.25;;
21810;SDS011;11067;48.788;9.208;2023-08-21T02:13:22;9.17;;;6.17;;
21810;SDS011;11067;48.788;9.208;2023-08-21T02:15:47;11.40;;;7.25;;
21810;SDS011;11067;48.788;9.208;2023-08-21T02:18:13;9.47;;;6.53;;
21810;SDS011;11067;48.788;9.208;2023-08-21T02:20:38;8.50;;;6.40;;
21810;SDS011;11067;48.788;9.208;2023-08-21T02:23:04;11.05;;;6.63;;
21810;SDS011;11067;48.788;9.208;2023-08-21T02:25:30;8.77;;;6.50;;
21810;SDS011;11067;48.788;9.208;2023-08-21T02:27:56;10.02;;;6.90;;
21810;SDS011;11067;48.788;9.208;2023-08-21T02:30:22;10.13;;;6.93;;
21810;SDS011;11067;48.788;9.208;2023-08-21T02:32:50;10.70;;;6.87;;
21810;SDS011;11067;48.788;9.208;2023-08-21T02:35:17;11.32;;;6.85;;
21810;SDS011;11067;48.788;9.208;2023-08-21T02:37:42;7.85;;;6.57;;
21810;SDS011;11067;48.788;9.208;2023-08-21T02:40:08;10.40;;;7.00;;
21810;SDS011;11067;48.788;9.208;2023-08-21T02:42:34;11.52;;;6.97;;
21810;SDS011;11067;48.788;9.208;2023-08-21T02:44:59;9.87;;;7.40;;
21810;SDS011;11067;48.788;9.208;2023-08-21T02:47:28;9.63;;;6.30;;
21810;SDS011;11067;48.788;9.208;2023-08-21T02:49:54;11.38;;;7.13;;
21810;SDS011;11067;48.788;9.208;2023-08-21T02:52:20;15.20;;;7.17;;
21810;SDS011;11067;48.788;9.208;2023-08-21T02:54:45;12.32;;;6.88;;
21810;SDS011;11067;48.788;9.208;2023-08-21T02:57:11;11.20;;;6.47;;
21810;SDS011;11067;48.788;9.208;2023-08-21T02:59:36;8.52;;;6.50;;
21810;SDS011;11067;48.788;9.208;2023-08-21T03:02:02;10.33;;;6.93;;
21810;SDS011;11067;48.788;9.208;2023-08-21T03:04:27;9.45;;;6.82;;
21810;SDS011;11067;48.788;9.208;2023-08-21T03:06:53;9.23;;;6.70;;
21810;SDS011;11067;48.788;9.208;2023-08-21T03:09:18;11.02;;;7.35;;
21810;SDS011;11067;48.788;9.208;2023-08-21T03:11:44;12.73;;;7.17;;
21810;SDS011;11067;48.788;9.208;2023-08-21T03:14:09;12.13;;;6.70;;
21810;SDS011;11067;48.788;9.208;2023-08-21T03:16:35;10.02;;;6.57;;
21810;SDS011;11067;48.788;9.208;2023-08-21T03:19:00;8.90;;;6.37;;
21810;SDS011;11067;48.788;9.208;2023-08-21T03:21:26;8.23;;;6.45;;
21810;SDS011;11067;48.788;9.208;2023-08-21T03:23:54;11.07;;;6.10;;
21810;SDS011;11067;48.788;9.208;2023-08-21T03:26:21;10.63;;;6.63;;
21810;SDS011;11067;48.788;9.208;2023-08-21T03:28:47;8.13;;;6.53;;
21810;SDS011;11067;48.788;9.208;2023-08-21T03:31:13;13.38;;;7.15;;
21810;SDS011;11067;48.788;9.208;2023-08-21T03:33:39;10.65;;;6.57;;
21810;SDS011;11067;48.788;9.208;2023-08-21T03:36:05;11.67;;;6.67;;
21810;SDS011;11067;48.788;9.208;2023-08-21T03:38:30;11.00;;;6.95;;
21810;SDS011;11067;48.788;9.208;2023-08-21T03:40:56;10.73;;;7.10;;
21810;SDS011;11067;48.788;9.208;2023-08-21T03:43:21;10.98;;;7.32;;
21810;SDS011;11067;48.788;9.208;2023-08-21T03:45:47;9.80;;;7.00;;
21810;SDS011;11067;48.788;9.208;2023-08-21T03:48:12;11.63;;;7.43;;
21810;SDS011;11067;48.788;9.208;2023-08-21T03:50:38;8.65;;;6.97;;
21810;SDS011;11067;48.788;9.208;2023-08-21T03:53:04;11.05;;;6.93;;
21810;SDS011;11067;48.788;9.208;2023-08-21T03:55:29;12.07;;;7.00;;
21810;SDS011;11067;48.788;9.208;2023-08-21T03:57:55;8.77;;;6.28;;
21810;SDS011;11067;48.788;9.208;2023-08-21T04:00:21;9.93;;;6.63;;
21810;SDS011;11067;48.788;9.208;2023-08-21T04:02:47;11.38;;;6.95;;
21810;SDS011;11067;48.788;9.208;2023-08-21T04:05:12;11.13;;;7.53;;
21810;SDS011;11067;48.788;9.208;2023-08-21T04:07:38;13.47;;;7.30;;
21810;SDS011;11067;48.788;9.208;2023-08-21T04:10:04;9.80;;;7.07;;
21810;SDS011;11067;48.788;9.208;2023-08-21T04:12:30;10.88;;;7.80;;
21810;SDS011;11067;48.788;9.208;2023-08-21T04:14:56;11.68;;;7.85;;
21810;SDS011;11067;48.788;9.208;2023-08-21T04:17:22;16.37;;;8.80;;
21810;SDS011;11067;48.788;9.208;2023-08-21T04:19:47;18.00;;;8.23;;
21810;SDS011;11067;48.788;9.208;2023-08-21T04:22:13;13.98;;;8.45;;
21810;SDS011;11067;48.788;9.208;2023-08-21T04:24:40;11.82;;;8.30;;
21810;SDS011;11067;48.788;9.208;2023-08-21T04:27:06;12.63;;;8.55;;
21810;SDS011;11067;48.788;9.208;2023-08-21T04:29:31;14.93;;;9.03;;
21810;SDS011;11067;48.788;9.208;2023-08-21T04:31:57;17.27;;;9.70;;
21810;SDS011;11067;48.788;9.208;2023-08-21T04:34:22;16.97;;;9.47;;
21810;SDS011;11067;48.788;9.208;2023-08-21T04:36:48;18.98;;;10.13;;
21810;SDS011;11067;48.788;9.208;2023-08-21T04:39:14;17.15;;;10.05;;
21810;SDS011;11067;48.788;9.208;2023-08-21T04:41:40;15.20;;;9.63;;
21810;SDS011;11067;48.788;9.208;2023-08-21T04:44:06;14.95;;;10.02;;
21810;SDS011;11067;48.788;9.208;2023-08-21T04:46:32;14.97;;;9.83;;
21810;SDS011;11067;48.788;9.208;2023-08-21T04:48:57;14.85;;;9.32;;
21810;SDS011;11067;48.788;9.208;2023-08-21T04:51:23;17.27;;;9.90;;
21810;SDS011;11067;48.788;9.208;2023-08-21T04:53:49;16.97;;;9.83;;
21810;SDS011;11067;48.788;9.208;2023-08-21T04:56:16;14.15;;;9.32;;
21810;SDS011;11067;48.788;9.208;2023-08-21T04:58:41;18.27;;;9.80;;
21810;SDS011;11067;48.788;9.208;2023-08-21T05:01:07;16.35;;;9.43;;
21810;SDS011;11067;48.788;9.208;2023-08-21T05:03:32;12.47;;;8.37;;
21810;SDS011;11067;48.788;9.208;2023-08-21T05:05:58;12.20;;;8.23;;
21810;SDS011;11067;48.788;9.208;2023-08-21T05:08:24;11.97;;;7.90;;
21810;SDS011;11067;48.788;9.208;2023-08-21T05:10:54;11.45;;;8.30;;
21810;SDS011;11067;48.788;9.208;2023-08-21T05:13:20;11.20;;;7.18;;
21810;SDS011;11067;48.788;9.208;2023-08-21T05:15:50;11.97;;;7.60;;
21810;SDS011;11067;48.788;9.208;2023-08-21T05:18:17;10.33;;;7.43;;
21810;SDS011;11067;48.788;9.208;2023-08-21T05:20:43;10.27;;;7.00;;
21810;SDS011;11067;48.788;9.208;2023-08-21T05:23:08;10.47;;;7.17;;
21810;SDS011;11067;48.788;9.208;2023-08-21T05:25:34;12.65;;;7.60;;
21810;SDS011;11067;48.788;9.208;2023-08-21T05:27:59;13.27;;;7.10;;
21810;SDS011;11067;48.788;9.208;2023-08-21T05:30:25;10.43;;;7.37;;
21810;SDS011;11067;48.788;9.208;2023-08-21T05:32:50;11.00;;;7.47;;
21810;SDS011;11067;48.788;9.208;2023-08-21T05:35:16;13.07;;;7.70;;
21810;SDS011;11067;48.788;9.208;2023-08-21T05:37:41;13.50;;;7.93;;
21810;SDS011;11067;48.788;9.208;2023-08-21T05:40:07;13.90;;;8.33;;
21810;SDS011;11067;48.788;9.208;2023-08-21T05:42:33;12.82;;;7.93;;
21810;SDS011;11067;48.788;9.208;2023-08-21T05:44:59;10.50;;;7.53;;
21810;SDS011;11067;48.788;9.208;2023-08-21T05:47:24;12.90;;;8.07;;
21810;SDS011;11067;48.788;9.208;2023-08-21T05:49:51;12.70;;;8.10;;
21810;SDS011;11067;48.788;9.208;2023-08-21T05:52:18;16.25;;;7.72;;
21810;SDS011;11067;48.788;9.208;2023-08-21T05:54:43;13.43;;;7.50;;
21810;SDS011;11067;48.788;9.208;2023-08-21T05:57:09;11.77;;;7.40;;
21810;SDS011;11067;48.788;9.208;2023-08-21T05:59:34;11.23;;;7.10;;
21810;SDS011;11067;48.788;9.208;2023-08-21T06:02:00;9.77;;;7.17;;
21810;SDS011;11067;48.788;9.208;2023-08-21T06:04:26;16.80;;;8.25;;
21810;SDS011;11067;48.788;9.208;2023-08-21T06:06:52;18.33;;;8.50;;
21810;SDS011;11067;48.788;9.208;2023-08-21T06:09:17;14.43;;;8.02;;
21810;SDS011;11067;48.788;9.208;2023-08-21T06:11:44;11.02;;;7.53;;
21810;SDS011;11067;48.788;9.208;2023-08-21T06:14:09;11.13;;;7.53;;
21810;SDS011;11067;48.788;9.208;2023-08-21T06:16:35;12.38;;;7.80;;
21810;SDS011;11067;48.788;9.208;2023-08-21T06:19:00;12.43;;;7.57;;
21810;SDS011;11067;48.788;9.208;2023-08-21T06:21:26;9.80;;;7.10;;
21810;SDS011;11067;48.788;9.208;2023-08-21T06:23:51;13.07;;;7.13;;
21810;SDS011;11067;48.788;9.208;2023-08-21T06:26:17;12.45;;;7.68;;
21810;SDS011;11067;48.788;9.208;2023-08-21T06:28:42;10.50;;;7.17;;
21810;SDS011;11067;48.788;9.208;2023-08-21T06:31:08;12.27;;;7.80;;
21810;SDS011;11067;48.788;9.208;2023-08-21T06:33:34;10.98;;;7.60;;
21810;SDS011;11067;48.788;9.208;2023-08-21T06:35:59;14.00;;;7.37;;
21810;SDS011;11067;48.788;9.208;2023-08-21T06:38:25;13.15;;;7.88;;
21810;SDS011;11067;48.788;9.208;2023-08-21T06:40:50;15.90;;;8.30;;
21810;SDS011;11067;48.788;9.208;2023-08-21T06:43:16;11.37;;;8.03;;
21810;SDS011;11067;48.788;9.208;2023-08-21T06:45:42;13.00;;;8.20;;
21810;SDS011;11067;48.788;9.208;2023-08-21T06:48:07;12.27;;;8.35;;
21810;SDS011;11067;48.788;9.208;2023-08-21T06:50:33;16.37;;;8.27;;
21810;SDS011;11067;48.788;9.208;2023-08-21T06:52:59;11.07;;;7.80;;
21810;SDS011;11067;48.788;9.208;2023-08-21T06:55:24;12.23;;;7.40;;
21810;SDS011;11067;48.788;9.208;2023-08-21T06:57:50;13.73;;;7.50;;
21810;SDS011;11067;48.788;9.208;2023-08-21T07:00:15;12.35;;;7.70;;
21810;SDS011;11067;48.788;9.208;2023-08-21T07:02:41;13.48;;;8.10;;
21810;SDS011;11067;48.788;9.208;2023-08-21T07:05:06;16.47;;;7.30;;
21810;SDS011;11067;48.788;9.208;2023-08-21T07:07:37;13.00;;;7.35;;
21810;SDS011;11067;48.788;9.208;2023-08-21T07:10:03;14.60;;;7.77;;
21810;SDS011;11067;48.788;9.208;2023-08-21T07:12:29;11.35;;;7.22;;
21810;SDS011;11067;48.788;9.208;2023-08-21T07:14:55;15.43;;;8.20;;
21810;SDS011;11067;48.788;9.208;2023-08-21T07:17:21;14.23;;;7.55;;
21810;SDS011;11067;48.788;9.208;2023-08-21T07:19:46;10.70;;;6.53;;
21810;SDS011;11067;48.788;9.208;2023-08-21T07:22:14;11.77;;;7.73;;
21810;SDS011;11067;48.788;9.208;2023-08-21T07:24:39;11.85;;;7.03;;
21810;SDS011;11067;48.788;9.208;2023-08-21T07:27:05;10.43;;;7.13;;
21810;SDS011;11067;48.788;9.208;2023-08-21T07:29:33;9.45;;;7.00;;
21810;SDS011;11067;48.788;9.208;2023-08-21T07:31:59;11.70;;;6.97;;
21810;SDS011;11067;48.788;9.208;2023-08-21T07:34:26;14.10;;;7.25;;
21810;SDS011;11067;48.788;9.208;2023-08-21T07:36:51;12.50;;;6.85;;
21810;SDS011;11067;48.788;9.208;2023-08-21T07:39:19;10.65;;;7.00;;
21810;SDS011;11067;48.788;9.208;2023-08-21T07:41:45;8.83;;;6.87;;
21810;SDS011;11067;48.788;9.208;2023-08-21T07:44:10;11.47;;;6.80;;
21810;SDS011;11067;48.788;9.208;2023-08-21T07:46:36;11.10;;;7.07;;
21810;SDS011;11067;48.788;9.208;2023-08-21T07:49:01;11.20;;;6.17;;
21810;SDS011;11067;48.788;9.208;2023-08-21T07:51:27;13.67;;;6.70;;
21810;SDS011;11067;48.788;9.208;2023-08-21T07:53:52;9.33;;;6.87;;
21810;SDS011;11067;48.788;9.208;2023-08-21T07:56:18;9.77;;;6.20;;
21810;SDS011;11067;48.788;9.208;2023-08-21T07:58:43;11.93;;;6.43;;
21810;SDS011;11067;48.788;9.208;2023-08-21T08:01:09;11.07;;;6.70;;
21810;SDS011;11067;48.788;9.208;2023-08-21T08:03:35;11.27;;;5.65;;
21810;SDS011;11067;48.788;9.208;2023-08-21T08:06:00;12.93;;;6.53;;
21810;SDS011;11067;48.788;9.208;2023-08-21T08:08:26;7.40;;;6.28;;
21810;SDS011;11067;48.788;9.208;2023-08-21T08:10:51;9.27;;;6.60;;
21810;SDS011;11067;48.788;9.208;2023-08-21T08:13:17;10.07;;;7.07;;
21810;SDS011;11067;48.788;9.208;2023-08-21T08:15:42;12.50;;;7.27;;
21810;SDS011;11067;48.788;9.208;2023-08-21T08:18:11;10.93;;;7.13;;
21810;SDS011;11067;48.788;9.208;2023-08-21T08:20:38;12.45;;;6.90;;
21810;SDS011;11067;48.788;9.208;2023-08-21T08:23:03;10.23;;;7.07;;
21810;SDS011;11067;48.788;9.208;2023-08-21T08:25:29;10.23;;;6.63;;
21810;SDS011;11067;48.788;9.208;2023-08-21T08:27:54;9.43;;;6.77;;
21810;SDS011;11067;48.788;9.208;2023-08-21T08:30:20;11.68;;;7.30;;
21810;SDS011;11067;48.788;9.208;2023-08-21T08:32:45;13.13;;;7.50;;
21810;SDS011;11067;48.788;9.208;2023-08-21T08:35:14;10.27;;;7.10;;
21810;SDS011;11067;48.788;9.208;2023-08-21T08:37:40;10.03;;;6.97;;
21810;SDS011;11067;48.788;9.208;2023-08-21T08:40:06;10.95;;;6.95;;
21810;SDS011;11067;48.788;9.208;2023-08-21T08:42:33;10.35;;;6.35;;
21810;SDS011;11067;48.788;9.208;2023-08-21T08:45:00;10.67;;;6.47;;
21810;SDS011;11067;48.788;9.208;2023-08-21T08:47:28;11.27;;;6.72;;
21810;SDS011;11067;48.788;9.208;2023-08-21T08:49:56;8.77;;;6.20;;
21810;SDS011;11067;48.788;9.208;2023-08-21T08:52:24;7.77;;;5.77;;
21810;SDS011;11067;48.788;9.208;2023-08-21T08:54:51;8.95;;;5.60;;
21810;SDS011;11067;48.788;9.208;2023-08-21T08:57:19;8.38;;;5.65;;
21810;SDS011;11067;48.788;9.208;2023-08-21T08:59:45;11.57;;;6.40;;
21810;SDS011;11067;48.788;9.208;2023-08-21T09:02:10;10.23;;;5.77;;
21810;SDS011;11067;48.788;9.208;2023-08-21T09:04:36;9.93;;;5.90;;
21810;SDS011;11067;48.788;9.208;2023-08-21T09:07:05;10.23;;;5.90;;
21810;SDS011;11067;48.788;9.208;2023-08-21T09:09:38;10.13;;;5.70;;
21810;SDS011;11067;48.788;9.208;2023-08-21T09:12:11;6.72;;;5.28;;
21810;SDS011;11067;48.788;9.208;2023-08-21T09:14:40;7.93;;;5.63;;
21810;SDS011;11067;48.788;9.208;2023-08-21T09:17:07;7.97;;;5.65;;
21810;SDS011;11067;48.788;9.208;2023-08-21T09:19:33;8.93;;;5.50;;
21810;SDS011;11067;48.788;9.208;2023-08-21T09:22:06;9.75;;;6.55;;
21810;SDS011;11067;48.788;9.208;2023-08-21T09:24:38;6.93;;;5.57;;
21810;SDS011;11067;48.788;9.208;2023-08-21T09:27:04;10.02;;;5.28;;
21810;SDS011;11067;48.788;9.208;2023-08-21T09:29:38;9.77;;;5.72;;
21810;SDS011;11067;48.788;9.208;2023-08-21T09:32:05;7.95;;;5.70;;
21810;SDS011;11067;48.788;9.208;2023-08-21T09:34:34;7.70;;;5.30;;
21810;SDS011;11067;48.788;9.208;2023-08-21T09:37:01;9.80;;;5.13;;
21810;SDS011;11067;48.788;9.208;2023-08-21T09:39:36;11.15;;;4.82;;
21810;SDS011;11067;48.788;9.208;2023-08-21T09:42:06;8.02;;;5.07;;
21810;SDS011;11067;48.788;9.208;2023-08-21T09:44:35;10.10;;;4.63;;
21810;SDS011;11067;48.788;9.208;2023-08-21T09:47:08;7.40;;;5.68;;
21810;SDS011;11067;48.788;9.208;2023-08-21T09:49:35;6.78;;;4.80;;
21810;SDS011;11067;48.788;9.208;2023-08-21T09:52:02;6.75;;;4.43;;
21810;SDS011;11067;48.788;9.208;2023-08-21T09:54:30;6.88;;;4.82;;
21810;SDS011;11067;48.788;9.208;2023-08-21T09:56:57;7.38;;;5.00;;
21810;SDS011;11067;48.788;9.208;2023-08-21T09:59:26;7.67;;;4.60;;
21810;SDS011;11067;48.788;9.208;2023-08-21T10:01:53;11.03;;;5.43;;
21810;SDS011;11067;48.788;9.208;2023-08-21T10:04:19;12.10;;;5.25;;
21810;SDS011;11067;48.788;9.208;2023-08-21T10:06:48;6.78;;;5.15;;
21810;SDS011;11067;48.788;9.208;2023-08-21T10:09:16;10.77;;;5.53;;
21810;SDS011;11067;48.788;9.208;2023-08-21T10:11:43;8.73;;;5.28;;
21810;SDS011;11067;48.788;9.208;2023-08-21T10:14:09;8.07;;;4.57;;
21810;SDS011;11067;48.788;9.208;2023-08-21T10:16:35;10.90;;;4.63;;
21810;SDS011;11067;48.788;9.208;2023-08-21T10:19:04;5.57;;;4.10;;
21810;SDS011;11067;48.788;9.208;2023-08-21T10:21:34;8.40;;;4.80;;
21810;SDS011;11067;48.788;9.208;2023-08-21T10:24:02;6.63;;;4.60;;
21810;SDS011;11067;48.788;9.208;2023-08-21T10:26:28;8.00;;;4.57;;
21810;SDS011;11067;48.788;9.208;2023-08-21T10:28:54;8.93;;;4.60;;
21810;SDS011;11067;48.788;9.208;2023-08-21T10:31:27;6.23;;;4.50;;
21810;SDS011;11067;48.788;9.208;2023-08-21T10:33:55;5.97;;;4.53;;
21810;SDS011;11067;48.788;9.208;2023-08-21T10:39:20;6.57;;;4.25;;
21810;SDS011;11067;48.788;9.208;2023-08-21T10:49:52;7.00;;;4.10;;
21810;SDS011;11067;48.788;9.208;2023-08-21T10:52:38;6.85;;;4.30;;
21810;SDS011;11067;48.788;9.208;2023-08-21T10:55:07;6.22;;;4.25;;
21810;SDS011;11067;48.788;9.208;2023-08-21T10:57:34;6.75;;;4.65;;
21810;SDS011;11067;48.788;9.208;2023-08-21T11:02:30;7.47;;;4.40;;
21810;SDS011;11067;48.788;9.208;2023-08-21T11:04:57;9.07;;;4.22;;
21810;SDS011;11067;48.788;9.208;2023-08-21T11:07:24;7.00;;;4.63;;
21810;SDS011;11067;48.788;9.208;2023-08-21T11:09:50;9.00;;;5.15;;
21810;SDS011;11067;48.788;9.208;2023-08-21T11:12:17;8.80;;;4.37;;
21810;SDS011;11067;48.788;9.208;2023-08-21T11:14:44;4.93;;;4.05;;
21810;SDS011;11067;48.788;9.208;2023-08-21T11:17:10;5.23;;;4.10;;
21810;SDS011;11067;48.788;9.208;2023-08-21T11:19:36;5.70;;;4.50;;
21810;SDS011;11067;48.788;9.208;2023-08-21T11:22:03;7.13;;;4.53;;
21810;SDS011;11067;48.788;9.208;2023-08-21T11:24:33;6.68;;;4.60;;
21810;SDS011;11067;48.788;9.208;2023-08-21T11:27:07;7.50;;;4.32;;
21810;SDS011;11067;48.788;9.208;2023-08-21T11:29:55;6.30;;;4.60;;
21810;SDS011;11067;48.788;9.208;2023-08-21T11:32:21;7.30;;;4.10;;
21810;SDS011;11067;48.788;9.208;2023-08-21T11:34:48;7.30;;;4.50;;
21810;SDS011;11067;48.788;9.208;2023-08-21T11:37:18;9.27;;;5.38;;
21810;SDS011;11067;48.788;9.208;2023-08-21T11:39:50;8.30;;;4.40;;
21810;SDS011;11067;48.788;9.208;2023-08-21T11:42:17;11.32;;;5.07;;
21810;SDS011;11067;48.788;9.208;2023-08-21T11:44:44;9.40;;;4.68;;
21810;SDS011;11067;48.788;9.208;2023-08-21T11:47:11;7.30;;;4.75;;
21810;SDS011;11067;48.788;9.208;2023-08-21T11:49:39;8.55;;;5.03;;
21810;SDS011;11067;48.788;9.208;2023-08-21T11:52:06;8.05;;;4.65;;
21810;SDS011;11067;48.788;9.208;2023-08-21T11:54:33;8.75;;;4.80;;
21810;SDS011;11067;48.788;9.208;2023-08-21T11:57:00;6.60;;;4.68;;
21810;SDS011;11067;48.788;9.208;2023-08-21T11:59:29;7.63;;;4.53;;
21810;SDS011;11067;48.788;9.208;2023-08-21T12:01:55;5.50;;;4.63;;
21810;SDS011;11067;48.788;9.208;2023-08-21T12:04:20;7.07;;;4.60;;
21810;SDS011;11067;48.788;9.208;2023-08-21T12:06:46;7.93;;;4.57;;
21810;SDS011;11067;48.788;9.208;2023-08-21T12:09:12;7.50;;;4.63;;
21810;SDS011;11067;48.788;9.208;2023-08-21T12:11:37;7.30;;;4.40;;
21810;SDS011;11067;48.788;9.208;2023-08-21T12:14:03;7.70;;;4.90;;
21810;SDS011;11067;48.788;9.208;2023-08-21T12:16:29;7.90;;;4.60;;
21810;SDS011;11067;48.788;9.208;2023-08-21T12:18:55;6.80;;;4.93;;
21810;SDS011;11067;48.788;9.208;2023-08-21T12:21:22;9.30;;;4.85;;
21810;SDS011;11067;48.788;9.208;2023-08-21T12:23:48;5.28;;;4.78;;
21810;SDS011;11067;48.788;9.208;2023-08-21T12:26:14;5.37;;;4.23;;
21810;SDS011;11067;48.788;9.208;2023-08-21T12:28:45;6.53;;;4.22;;
21810;SDS011;11067;48.788;9.208;2023-08-21T12:31:12;6.30;;;4.30;;
21810;SDS011;11067;48.788;9.208;2023-08-21T12:33:38;5.35;;;4.50;;
21810;SDS011;11067;48.788;9.208;2023-08-21T12:36:03;6.70;;;4.50;;
21810;SDS011;11067;48.788;9.208;2023-08-21T12:38:29;9.43;;;4.63;;
21810;SDS011;11067;48.788;9.208;2023-08-21T12:40:55;7.57;;;4.78;;
21810;SDS011;11067;48.788;9.208;2023-08-21T12:43:21;10.20;;;4.70;;
21810;SDS011;11067;48.788;9.208;2023-08-21T12:45:47;7.80;;;4.50;;
21810;SDS011;11067;48.788;9.208;2023-08-21T12:48:13;10.63;;;5.05;;
21810;SDS011;11067;48.788;9.208;2023-08-21T12:50:39;7.13;;;4.80;;
21810;SDS011;11067;48.788;9.208;2023-08-21T12:53:05;9.37;;;4.37;;
21810;SDS011;11067;48.788;9.208;2023-08-21T12:55:31;6.50;;;4.40;;
21810;SDS011;11067;48.788;9.208;2023-08-21T12:57:57;5.07;;;4.35;;
21810;SDS011;11067;48.788;9.208;2023-08-21T13:00:23;5.75;;;4.28;;
21810;SDS011;11067;48.788;9.208;2023-08-21T13:02:49;7.65;;;4.40;;
21810;SDS011;11067;48.788;9.208;2023-08-21T13:05:22;7.82;;;4.55;;
21810;SDS011;11067;48.788;9.208;2023-08-21T13:07:48;5.22;;;4.10;;
21810;SDS011;11067;48.788;9.208;2023-08-21T13:10:14;6.13;;;4.07;;
21810;SDS011;11067;48.788;9.208;2023-08-21T13:12:40;7.50;;;4.40;;
21810;SDS011;11067;48.788;9.208;2023-08-21T13:15:06;8.15;;;4.38;;
21810;SDS011;11067;48.788;9.208;2023-08-21T13:17:33;6.85;;;4.40;;
21810;SDS011;11067;48.788;9.208;2023-08-21T13:19:59;10.52;;;5.45;;
21810;SDS011;11067;48.788;9.208;2023-08-21T13:22:25;5.80;;;4.47;;
21810;SDS011;11067;48.788;9.208;2023-08-21T13:24:51;7.32;;;4.85;;
21810;SDS011;11067;48.788;9.208;2023-08-21T13:27:17;7.27;;;4.27;;
21810;SDS011;11067;48.788;9.208;2023-08-21T13:29:43;7.20;;;4.68;;
21810;SDS011;11067;48.788;9.208;2023-08-21T13:32:09;7.07;;;4.28;;
21810;SDS011;11067;48.788;9.208;2023-08-21T13:34:35;8.60;;;4.65;;
21810;SDS011;11067;48.788;9.208;2023-08-21T13:37:01;6.90;;;4.50;;
21810;SDS011;11067;48.788;9.208;2023-08-21T13:39:27;6.57;;;4.20;;
21810;SDS011;11067;48.788;9.208;2023-08-21T13:41:53;5.55;;;4.45;;
21810;SDS011;11067;48.788;9.208;2023-08-21T13:44:19;6.40;;;4.57;;
21810;SDS011;11067;48.788;9.208;2023-08-21T13:46:45;9.82;;;4.40;;
21810;SDS011;11067;48.788;9.208;2023-08-21T13:49:11;7.57;;;4.63;;
21810;SDS011;11067;48.788;9.208;2023-08-21T13:51:37;8.95;;;4.20;;
21810;SDS011;11067;48.788;9.208;2023-08-21T13:54:03;11.00;;;5.20;;
21810;SDS011;11067;48.788;9.208;2023-08-21T13:56:29;8.20;;;4.78;;
21810;SDS011;11067;48.788;9.208;2023-08-21T13:58:55;5.43;;;4.00;;
21810;SDS011;11067;48.788;9.208;2023-08-21T14:01:21;6.95;;;4.40;;
21810;SDS011;11067;48.788;9.208;2023-08-21T14:03:47;6.53;;;4.57;;
21810;SDS011;11067;48.788;9.208;2023-08-21T14:06:13;10.80;;;4.80;;
21810;SDS011;11067;48.788;9.208;2023-08-21T14:08:39;8.18;;;4.25;;
21810;SDS011;11067;48.788;9.208;2023-08-21T14:11:05;7.20;;;4.72;;
21810;SDS011;11067;48.788;9.208;2023-08-21T14:13:31;6.27;;;4.93;;
21810;SDS011;11067;48.788;9.208;2023-08-21T14:15:57;8.20;;;4.57;;
21810;SDS011;11067;48.788;9.208;2023-08-21T14:18:22;6.07;;;4.43;;
21810;SDS011;11067;48.788;9.208;2023-08-21T14:20:48;6.03;;;4.57;;
21810;SDS011;11067;48.788;9.208;2023-08-21T14:23:14;11.35;;;4.65;;
21810;SDS011;11067;48.788;9.208;2023-08-21T14:25:40;5.57;;;4.50;;
21810;SDS011;11067;48.788;9.208;2023-08-21T14:28:06;5.43;;;4.30;;
21810;SDS011;11067;48.788;9.208;2023-08-21T14:30:32;5.57;;;4.37;;
21810;SDS011;11067;48.788;9.208;2023-08-21T14:32:58;4.97;;;4.15;;
21810;SDS011;11067;48.788;9.208;2023-08-21T14:35:24;7.57;;;4.28;;
21810;SDS011;11067;48.788;9.208;2023-08-21T14:37:50;7.28;;;4.55;;
21810;SDS011;11067;48.788;9.208;2023-08-21T14:40:16;7.78;;;4.45;;
21810;SDS011;11067;48.788;9.208;2023-08-21T14:42:42;7.75;;;4.50;;
21810;SDS011;11067;48.788;9.208;2023-08-21T14:45:08;6.50;;;4.15;;
21810;SDS011;11067;48.788;9.208;2023-08-21T14:47:35;5.70;;;4.30;;
21810;SDS011;11067;48.788;9.208;2023-08-21T14:50:02;6.63;;;4.00;;
21810;SDS011;11067;48.788;9.208;2023-08-21T14:52:28;6.78;;;3.88;;